Time,TemperatureF,DewpointF,PressureIn,WindDirection,WindDirectionDegrees,WindSpeedMPH,WindSpeedGustMPH,Humidity,HourlyPrecipIn,Conditions,Clouds,dailyrainin,SoftwareType,DateUTC
2013-11-18 00:22:00,38.0,29.0,30.16,SW,225,0.0,0.0,71,0.00,,,0.00,,2013-11-18 06:22:00,
2013-11-18 00:42:00,38.0,29.0,30.16,SW,225,0.0,0.0,71,0.00,,,0.00,,2013-11-18 06:42:00,
2013-11-18 00:52:00,38.0,30.0,30.15,NE,46,0.0,1.0,72,0.00,,,0.00,,2013-11-18 06:52:00,
2013-11-18 01:21:00,37.0,29.0,30.14,WNW,300,0.0,0.0,72,0.00,,,0.00,,2013-11-18 07:21:00,
2013-11-18 01:32:00,37.0,29.0,30.14,WNW,300,0.0,0.0,72,0.00,,,0.00,,2013-11-18 07:32:00,
2013-11-18 01:42:00,37.0,29.0,30.14,WNW,300,0.0,0.0,72,0.00,,,0.00,,2013-11-18 07:42:00,
2013-11-18 01:52:00,36.0,29.0,30.14,NNW,328,0.0,0.0,74,0.00,,,0.00,,2013-11-18 07:52:00,
2013-11-18 02:22:00,35.0,28.0,30.14,NW,307,0.0,0.0,75,0.00,,,0.00,,2013-11-18 08:22:00,
2013-11-18 02:32:00,35.0,28.0,30.14,NW,307,0.0,0.0,75,0.00,,,0.00,,2013-11-18 08:32:00,
2013-11-18 02:42:00,35.0,28.0,30.14,NW,307,0.0,0.0,75,0.00,,,0.00,,2013-11-18 08:42:00,
2013-11-18 02:52:00,35.0,28.0,30.14,NW,307,0.0,0.0,75,0.00,,,0.00,,2013-11-18 08:52:00,
2013-11-18 03:22:00,34.0,27.0,30.19,SW,235,0.0,4.0,76,0.00,,,0.00,,2013-11-18 09:22:00,
2013-11-18 03:53:00,34.0,28.0,30.22,SW,236,0.0,1.0,77,0.00,,,0.00,,2013-11-18 09:53:00,
2013-11-18 04:03:00,34.0,28.0,30.22,SW,236,0.0,1.0,77,0.00,,,0.00,,2013-11-18 10:03:00,
2013-11-18 04:23:00,34.0,28.0,30.22,SW,233,0.0,1.0,78,0.00,,,0.00,,2013-11-18 10:23:00,
2013-11-18 04:53:00,34.0,28.0,30.23,SW,224,0.0,1.0,79,0.00,,,0.00,,2013-11-18 10:53:00,
2013-11-18 05:02:00,34.0,28.0,30.23,SW,224,0.0,1.0,79,0.00,,,0.00,,2013-11-18 11:02:00,
2013-11-18 05:22:00,33.0,27.0,30.23,SW,224,0.0,0.0,79,0.00,,,0.00,,2013-11-18 11:22:00,
2013-11-18 05:42:00,33.0,27.0,30.23,SW,224,0.0,0.0,79,0.00,,,0.00,,2013-11-18 11:42:00,
2013-11-18 05:52:00,33.0,27.0,30.23,SW,224,0.0,0.0,79,0.00,,,0.00,,2013-11-18 11:52:00,
2013-11-18 06:12:00,33.0,27.0,30.24,SW,224,0.0,0.0,79,0.00,,,0.00,,2013-11-18 12:12:00,
2013-11-18 06:22:00,33.0,27.0,30.24,SW,224,0.0,0.0,79,0.00,,,0.00,,2013-11-18 12:22:00,
2013-11-18 06:32:00,33.0,27.0,30.24,SW,224,0.0,0.0,79,0.00,,,0.00,,2013-11-18 12:32:00,
2013-11-18 06:42:00,33.0,27.0,30.24,SW,224,0.0,0.0,79,0.00,,,0.00,,2013-11-18 12:42:00,
2013-11-18 06:52:00,33.0,27.0,30.25,SW,224,0.0,0.0,79,0.00,,,0.00,,2013-11-18 12:52:00,
2013-11-18 07:11:00,33.0,27.0,30.25,SW,224,0.0,0.0,79,0.00,,,0.00,,2013-11-18 13:11:00,
2013-11-18 07:21:00,33.0,27.0,30.25,SW,224,0.0,0.0,79,0.00,,,0.00,,2013-11-18 13:21:00,
2013-11-18 07:42:00,33.0,27.0,30.26,SW,224,0.0,0.0,79,0.00,,,0.00,,2013-11-18 13:42:00,
2013-11-18 07:52:00,33.0,27.0,30.26,SW,224,0.0,0.0,79,0.00,,,0.00,,2013-11-18 13:52:00,
2013-11-18 08:11:00,33.0,27.0,30.27,SW,224,0.0,0.0,79,0.00,,,0.00,,2013-11-18 14:11:00,
2013-11-18 08:22:00,33.0,27.0,30.27,SW,224,0.0,0.0,79,0.00,,,0.00,,2013-11-18 14:22:00,
2013-11-18 08:32:00,33.0,27.0,30.27,SW,224,0.0,0.0,79,0.00,,,0.00,,2013-11-18 14:32:00,
2013-11-18 09:22:00,36.0,29.0,30.30,SW,236,0.0,1.0,75,0.00,,,0.00,,2013-11-18 15:22:00,
2013-11-18 09:33:00,36.0,29.0,30.30,SW,236,0.0,1.0,75,0.00,,,0.00,,2013-11-18 15:33:00,
2013-11-18 09:54:00,40.0,30.0,30.31,WNW,298,0.0,0.0,68,0.00,,,0.00,,2013-11-18 15:54:00,
2013-11-18 10:13:00,42.0,31.0,30.32,WNW,298,0.0,1.0,64,0.00,,,0.00,,2013-11-18 16:13:00,
2013-11-18 10:23:00,42.0,31.0,30.32,WNW,298,0.0,1.0,64,0.00,,,0.00,,2013-11-18 16:23:00,
2013-11-18 10:33:00,42.0,31.0,30.32,WNW,298,0.0,1.0,64,0.00,,,0.00,,2013-11-18 16:33:00,
2013-11-18 10:53:00,46.0,31.0,30.33,West,266,0.0,1.0,56,0.00,,,0.00,,2013-11-18 16:53:00,
2013-11-18 11:22:00,49.0,31.0,30.32,WNW,297,1.0,1.0,50,0.00,,,0.00,,2013-11-18 17:22:00,
2013-11-18 11:43:00,51.0,31.0,30.33,SW,235,0.0,3.0,46,0.00,,,0.00,,2013-11-18 17:43:00,
2013-11-18 11:52:00,51.0,31.0,30.33,SW,235,0.0,3.0,46,0.00,,,0.00,,2013-11-18 17:52:00,
2013-11-18 12:02:00,51.0,31.0,30.33,SW,235,0.0,3.0,46,0.00,,,0.00,,2013-11-18 18:02:00,
2013-11-18 12:12:00,51.0,31.0,30.33,SW,235,0.0,3.0,46,0.00,,,0.00,,2013-11-18 18:12:00,
2013-11-18 13:21:00,59.0,27.0,30.29,SW,236,0.0,7.0,29,0.00,,,0.00,,2013-11-18 19:21:00,
2013-11-18 13:32:00,59.0,27.0,30.29,SW,236,0.0,7.0,29,0.00,,,0.00,,2013-11-18 19:32:00,
2013-11-18 14:01:00,60.0,23.0,30.27,SSW,208,0.0,8.0,24,0.00,,,0.00,,2013-11-18 20:01:00,
2013-11-18 14:11:00,60.0,23.0,30.27,SSW,208,0.0,8.0,24,0.00,,,0.00,,2013-11-18 20:11:00,
2013-11-18 14:21:00,60.0,23.0,30.27,SSW,208,0.0,8.0,24,0.00,,,0.00,,2013-11-18 20:21:00,
2013-11-18 14:52:00,62.0,24.0,30.25,West,274,2.0,9.0,23,0.00,,,0.00,,2013-11-18 20:52:00,
2013-11-18 15:02:00,62.0,24.0,30.25,West,274,2.0,9.0,23,0.00,,,0.00,,2013-11-18 21:02:00,
2013-11-18 15:22:00,62.0,22.0,30.24,SW,219,4.0,9.0,21,0.00,,,0.00,,2013-11-18 21:22:00,
2013-11-18 15:54:00,63.0,21.0,30.24,SW,218,0.0,10.0,20,0.00,,,0.00,,2013-11-18 21:54:00,
2013-11-18 16:13:00,62.0,20.0,30.24,SW,218,0.0,7.0,20,0.00,,,0.00,,2013-11-18 22:13:00,
2013-11-18 16:22:00,62.0,20.0,30.24,SW,218,0.0,7.0,20,0.00,,,0.00,,2013-11-18 22:22:00,
2013-11-18 16:33:00,62.0,20.0,30.24,SW,218,0.0,7.0,20,0.00,,,0.00,,2013-11-18 22:33:00,
2013-11-18 17:12:00,61.0,24.0,30.23,SE,124,2.0,7.0,24,0.00,,,0.00,,2013-11-18 23:12:00,
2013-11-18 17:21:00,61.0,24.0,30.23,SE,124,2.0,7.0,24,0.00,,,0.00,,2013-11-18 23:21:00,
2013-11-18 17:42:00,58.0,24.0,30.22,SE,138,0.0,7.0,27,0.00,,,0.00,,2013-11-18 23:42:00,
2013-11-18 17:52:00,58.0,24.0,30.22,SE,138,0.0,7.0,27,0.00,,,0.00,,2013-11-18 23:52:00,
2013-11-18 18:21:00,55.0,24.0,30.23,SE,138,5.0,5.0,30,0.00,,,0.00,,2013-11-19 00:21:00,
2013-11-18 18:42:00,54.0,24.0,30.23,SW,215,0.0,5.0,31,0.00,,,0.00,,2013-11-19 00:42:00,
2013-11-18 18:52:00,53.0,23.0,30.23,SSE,166,1.0,5.0,31,0.00,,,0.00,,2013-11-19 00:52:00,
2013-11-18 19:02:00,53.0,23.0,30.23,SSE,166,1.0,5.0,31,0.00,,,0.00,,2013-11-19 01:02:00,
2013-11-18 19:21:00,52.0,23.0,30.23,SSE,153,2.0,5.0,32,0.00,,,0.00,,2013-11-19 01:21:00,
2013-11-18 19:42:00,51.0,23.0,30.23,SSE,155,2.0,4.0,33,0.00,,,0.00,,2013-11-19 01:42:00,
2013-11-18 19:52:00,51.0,24.0,30.22,SSW,205,0.0,4.0,34,0.00,,,0.00,,2013-11-19 01:52:00,
2013-11-18 20:12:00,50.0,23.0,30.22,SW,221,2.0,4.0,34,0.00,,,0.00,,2013-11-19 02:12:00,
2013-11-18 20:22:00,50.0,23.0,30.22,SW,221,2.0,4.0,34,0.00,,,0.00,,2013-11-19 02:22:00,
2013-11-18 20:52:00,48.0,24.0,30.23,SSE,153,0.0,1.0,38,0.00,,,0.00,,2013-11-19 02:52:00,
2013-11-18 21:11:00,47.0,24.0,30.22,SSW,211,0.0,1.0,40,0.00,,,0.00,,2013-11-19 03:11:00,
2013-11-18 21:21:00,47.0,24.0,30.22,SSW,211,0.0,1.0,40,0.00,,,0.00,,2013-11-19 03:21:00,
2013-11-18 21:33:00,47.0,24.0,30.22,SSW,211,0.0,1.0,40,0.00,,,0.00,,2013-11-19 03:33:00,
2013-11-18 21:54:00,45.0,24.0,30.24,SE,142,1.0,2.0,43,0.00,,,0.00,,2013-11-19 03:54:00,
2013-11-18 22:13:00,45.0,24.0,30.24,SE,142,1.0,2.0,43,0.00,,,0.00,,2013-11-19 04:13:00,
2013-11-18 22:23:00,45.0,24.0,30.24,SSW,197,0.0,4.0,44,0.00,,,0.00,,2013-11-19 04:23:00,
2013-11-18 22:33:00,45.0,24.0,30.24,SSW,197,0.0,4.0,44,0.00,,,0.00,,2013-11-19 04:33:00,
2013-11-18 22:42:00,45.0,24.0,30.24,SSW,197,0.0,4.0,44,0.00,,,0.00,,2013-11-19 04:42:00,
2013-11-18 22:52:00,45.0,24.0,30.24,SSW,197,0.0,4.0,44,0.00,,,0.00,,2013-11-19 04:52:00,
2013-11-18 23:22:00,42.0,24.0,30.25,SW,215,0.0,1.0,49,0.00,,,0.00,,2013-11-19 05:22:00,
2013-11-18 23:33:00,42.0,24.0,30.25,SW,215,0.0,1.0,49,0.00,,,0.00,,2013-11-19 05:33:00,
2013-11-18 23:53:00,42.0,24.0,30.24,SW,228,0.0,1.0,49,0.00,,,0.00,,2013-11-19 05:53:00,